createdAt,value
2018-08-09T00:00:40.406Z,1016.71
2018-08-09T00:01:40.130Z,1016.70
2018-08-09T00:02:40.331Z,1016.76
2018-08-09T00:04:01.765Z,1016.73
2018-08-09T00:05:46.027Z,1016.74
2018-08-09T00:06:46.904Z,1016.79
2018-08-09T00:08:08.549Z,1016.85
2018-08-09T00:09:09.412Z,1016.83
2018-08-09T00:10:09.569Z,1016.87
2018-08-09T00:11:08.616Z,1016.85
2018-08-09T00:12:30.741Z,1016.88
2018-08-09T00:13:31.802Z,1016.88
2018-08-09T00:14:31.396Z,1016.84
2018-08-09T00:15:31.489Z,1016.81
2018-08-09T00:16:31.880Z,1016.81
2018-08-09T00:17:32.107Z,1016.79
2018-08-09T00:18:31.678Z,1016.78
2018-08-09T00:19:31.563Z,1016.74
2018-08-09T00:20:31.096Z,1016.78
2018-08-09T00:21:30.783Z,1016.80
2018-08-09T00:22:32.684Z,1016.79
2018-08-09T00:23:31.723Z,1016.78
2018-08-09T00:24:31.413Z,1016.75
2018-08-09T00:25:31.605Z,1016.70
2018-08-09T00:26:31.383Z,1016.70
2018-08-09T00:27:31.414Z,1016.69
2018-08-09T00:28:53.052Z,1016.69
2018-08-09T00:29:53.576Z,1016.65
2018-08-09T00:30:53.347Z,1016.67
2018-08-09T00:31:53.082Z,1016.65
2018-08-09T00:32:53.822Z,1016.65
2018-08-09T00:33:53.736Z,1016.64
2018-08-09T00:34:54.784Z,1016.66
2018-08-09T00:35:53.760Z,1016.67
2018-08-09T00:37:17.321Z,1016.66
2018-08-09T00:38:17.189Z,1016.65
2018-08-09T00:39:17.443Z,1016.66
2018-08-09T00:40:18.084Z,1016.65
2018-08-09T00:41:39.739Z,1016.68
2018-08-09T00:42:40.402Z,1016.65
2018-08-09T00:43:40.460Z,1016.62
2018-08-09T00:44:40.339Z,1016.61
2018-08-09T00:45:40.314Z,1016.62
2018-08-09T00:46:40.265Z,1016.65
2018-08-09T00:47:40.059Z,1016.68
2018-08-09T00:48:39.965Z,1016.68
2018-08-09T00:49:39.831Z,1016.69
2018-08-09T00:50:39.880Z,1016.68
2018-08-09T00:51:39.637Z,1016.68
2018-08-09T00:52:39.680Z,1016.67
2018-08-09T00:53:39.581Z,1016.64
2018-08-09T00:54:40.511Z,1016.68
2018-08-09T00:55:40.300Z,1016.71
2018-08-09T00:57:01.655Z,1016.74
2018-08-09T00:58:02.573Z,1016.68
2018-08-09T00:59:45.122Z,1016.67
2018-08-09T01:00:45.873Z,1016.65
2018-08-09T01:01:45.484Z,1016.61
2018-08-09T01:02:45.367Z,1016.58
2018-08-09T01:04:07.445Z,1016.55
2018-08-09T01:05:08.290Z,1016.60
2018-08-09T01:06:07.927Z,1016.57
2018-08-09T01:07:07.640Z,1016.58
2018-08-09T01:08:08.236Z,1016.57
2018-08-09T01:09:07.760Z,1016.57
2018-08-09T01:10:07.593Z,1016.59
2018-08-09T01:11:08.654Z,1016.60
2018-08-09T01:12:08.565Z,1016.59
2018-08-09T01:13:31.427Z,1016.65
2018-08-09T01:14:32.626Z,1016.68
2018-08-09T01:15:55.684Z,1016.67
2018-08-09T01:16:56.642Z,1016.63
2018-08-09T01:17:56.307Z,1016.66
2018-08-09T01:18:56.010Z,1016.68
2018-08-09T01:19:55.643Z,1016.69
2018-08-09T01:20:56.283Z,1016.69
2018-08-09T01:21:56.057Z,1016.71
2018-08-09T01:22:55.705Z,1016.71
2018-08-09T01:23:56.514Z,1016.69
2018-08-09T01:24:56.366Z,1016.71
2018-08-09T01:25:56.182Z,1016.69
2018-08-09T01:26:56.116Z,1016.73
2018-08-09T01:27:55.818Z,1016.71
2018-08-09T01:28:56.738Z,1016.74
2018-08-09T01:29:56.386Z,1016.73
2018-08-09T01:30:57.302Z,1016.74
2018-08-09T01:31:56.286Z,1016.73
2018-08-09T01:32:56.136Z,1016.72
2018-08-09T01:33:56.335Z,1016.73
2018-08-09T01:34:56.331Z,1016.70
2018-08-09T01:36:40.891Z,1016.66
2018-08-09T01:37:41.736Z,1016.66
2018-08-09T01:38:41.669Z,1016.67
2018-08-09T01:39:41.347Z,1016.68
2018-08-09T01:41:02.830Z,1016.67
2018-08-09T01:42:25.154Z,1016.67
2018-08-09T01:44:07.801Z,1016.63
2018-08-09T01:45:29.783Z,1016.63
2018-08-09T01:46:30.392Z,1016.64
2018-08-09T01:47:30.059Z,1016.61
2018-08-09T01:48:30.827Z,1016.61
2018-08-09T01:49:30.519Z,1016.57
2018-08-09T01:50:30.261Z,1016.55
2018-08-09T01:51:30.373Z,1016.53
2018-08-09T01:52:29.954Z,1016.52
2018-08-09T01:53:30.455Z,1016.54
2018-08-09T01:54:30.090Z,1016.52
2018-08-09T01:55:29.813Z,1016.52
2018-08-09T01:56:30.575Z,1016.57
2018-08-09T01:57:30.474Z,1016.54
2018-08-09T01:58:30.280Z,1016.55
2018-08-09T01:59:29.941Z,1016.55
2018-08-09T02:00:29.810Z,1016.55
2018-08-09T02:01:30.525Z,1016.53
2018-08-09T02:02:29.968Z,1016.49
2018-08-09T02:03:30.785Z,1016.47
2018-08-09T02:04:30.735Z,1016.47
2018-08-09T02:05:52.140Z,1016.47
2018-08-09T02:06:53.117Z,1016.45
2018-08-09T02:07:52.852Z,1016.43
2018-08-09T02:08:52.687Z,1016.42
2018-08-09T02:09:52.345Z,1016.42
2018-08-09T02:11:39.018Z,1016.36
2018-08-09T02:12:39.127Z,1016.31
2018-08-09T02:13:39.190Z,1016.29
2018-08-09T02:14:39.155Z,1016.25
2018-08-09T02:15:38.959Z,1016.23
2018-08-09T02:17:00.466Z,1016.24
2018-08-09T02:18:00.944Z,1016.22
2018-08-09T02:19:00.640Z,1016.22
2018-08-09T02:20:01.429Z,1016.21
2018-08-09T02:21:01.346Z,1016.21
2018-08-09T02:22:00.815Z,1016.25
2018-08-09T02:23:23.908Z,1016.28
2018-08-09T02:24:24.781Z,1016.32
2018-08-09T02:25:24.552Z,1016.32
2018-08-09T02:26:24.319Z,1016.34
2018-08-09T02:27:46.541Z,1016.34
2018-08-09T02:28:47.099Z,1016.39
2018-08-09T02:30:08.214Z,1016.36
2018-08-09T02:31:08.013Z,1016.35
2018-08-09T02:32:08.672Z,1016.32
2018-08-09T02:33:08.123Z,1016.35
2018-08-09T02:34:08.921Z,1016.35
2018-08-09T02:35:29.846Z,1016.33
2018-08-09T02:36:30.772Z,1016.32
2018-08-09T02:37:30.257Z,1016.34
2018-08-09T02:38:29.970Z,1016.33
2018-08-09T02:39:30.857Z,1016.34
2018-08-09T02:40:30.995Z,1016.32
2018-08-09T02:41:30.760Z,1016.34
2018-08-09T02:42:30.392Z,1016.33
2018-08-09T02:43:30.073Z,1016.39
2018-08-09T02:44:31.024Z,1016.39
2018-08-09T02:45:30.874Z,1016.37
2018-08-09T02:46:30.489Z,1016.37
2018-08-09T02:47:51.726Z,1016.40
2018-08-09T02:49:13.729Z,1016.43
2018-08-09T02:50:58.949Z,1016.37
2018-08-09T02:52:21.286Z,1016.33
2018-08-09T02:53:21.741Z,1016.31
2018-08-09T02:54:21.445Z,1016.28
2018-08-09T02:56:08.173Z,1016.32
2018-08-09T02:57:07.865Z,1016.30
2018-08-09T02:58:08.730Z,1016.32
2018-08-09T02:59:08.440Z,1016.33
2018-08-09T03:00:08.559Z,1016.33
2018-08-09T03:01:08.516Z,1016.35
2018-08-09T03:02:08.215Z,1016.31
2018-08-09T03:03:08.808Z,1016.29
2018-08-09T03:04:08.805Z,1016.27
2018-08-09T03:05:08.592Z,1016.25
2018-08-09T03:06:08.250Z,1016.26
2018-08-09T03:07:08.260Z,1016.26
2018-08-09T03:08:08.005Z,1016.26
2018-08-09T03:09:08.950Z,1016.26
2018-08-09T03:10:09.007Z,1016.21
2018-08-09T03:11:08.794Z,1016.20
2018-08-09T03:12:08.437Z,1016.22
2018-08-09T03:13:08.406Z,1016.23
2018-08-09T03:14:08.058Z,1016.20
2018-08-09T03:15:07.738Z,1016.21
2018-08-09T03:16:08.455Z,1016.21
2018-08-09T03:17:08.053Z,1016.20
2018-08-09T03:18:08.665Z,1016.16
2018-08-09T03:19:29.549Z,1016.17
2018-08-09T03:20:30.286Z,1016.16
2018-08-09T03:21:29.730Z,1016.14
2018-08-09T03:22:30.540Z,1016.16
2018-08-09T03:24:15.120Z,1016.22
2018-08-09T03:25:16.043Z,1016.28
2018-08-09T03:26:15.666Z,1016.22
2018-08-09T03:27:15.206Z,1016.21
2018-08-09T03:28:39.284Z,1016.15
2018-08-09T03:29:39.925Z,1016.23
2018-08-09T03:30:39.759Z,1016.18
2018-08-09T03:32:25.360Z,1016.23
2018-08-09T03:33:26.302Z,1016.29
2018-08-09T03:34:47.826Z,1016.31
2018-08-09T03:35:48.342Z,1016.29
2018-08-09T03:37:09.530Z,1016.30
2018-08-09T03:38:31.547Z,1016.30
2018-08-09T03:39:53.955Z,1016.29
2018-08-09T03:40:54.659Z,1016.27
2018-08-09T03:41:54.516Z,1016.22
2018-08-09T03:42:54.190Z,1016.23
2018-08-09T03:43:54.773Z,1016.22
2018-08-09T03:44:54.563Z,1016.23
2018-08-09T03:45:54.333Z,1016.20
2018-08-09T03:46:54.951Z,1016.17
2018-08-09T03:47:54.466Z,1016.18
2018-08-09T03:48:54.393Z,1016.16
2018-08-09T03:49:54.275Z,1016.13
2018-08-09T03:50:53.944Z,1016.12
2018-08-09T03:51:54.763Z,1016.11
2018-08-09T03:52:54.217Z,1016.08
2018-08-09T03:53:54.896Z,1016.05
2018-08-09T03:54:54.621Z,1016.00
2018-08-09T03:55:54.431Z,1015.96
2018-08-09T03:56:53.996Z,1015.97
2018-08-09T03:57:55.072Z,1015.93
2018-08-09T03:59:16.056Z,1015.91
2018-08-09T04:00:16.923Z,1015.91
2018-08-09T04:01:16.513Z,1015.92
2018-08-09T04:02:16.279Z,1015.93
2018-08-09T04:03:17.048Z,1015.93
2018-08-09T04:04:38.416Z,1015.94
2018-08-09T04:05:39.241Z,1015.93
2018-08-09T04:06:39.235Z,1015.92
2018-08-09T04:07:39.120Z,1015.93
2018-08-09T04:08:39.093Z,1015.90
2018-08-09T04:09:38.809Z,1015.91
2018-08-09T04:10:38.477Z,1015.92
2018-08-09T04:11:39.838Z,1015.93
2018-08-09T04:12:38.820Z,1015.90
2018-08-09T04:13:38.755Z,1015.88
2018-08-09T04:14:38.678Z,1015.91
2018-08-09T04:16:02.168Z,1015.87
2018-08-09T04:17:03.250Z,1015.89
2018-08-09T04:18:02.806Z,1015.93
2018-08-09T04:19:02.384Z,1015.95
2018-08-09T04:20:03.325Z,1016.00
2018-08-09T04:21:27.311Z,1016.03
2018-08-09T04:22:28.256Z,1016.09
2018-08-09T04:23:28.287Z,1016.11
2018-08-09T04:24:28.046Z,1016.16
2018-08-09T04:25:28.078Z,1016.17
2018-08-09T04:26:28.018Z,1016.22
2018-08-09T04:27:27.811Z,1016.21
2018-08-09T04:28:27.706Z,1016.21
2018-08-09T04:29:27.374Z,1016.22
2018-08-09T04:30:27.471Z,1016.23
2018-08-09T04:31:27.446Z,1016.24
2018-08-09T04:32:48.723Z,1016.28
2018-08-09T04:33:49.444Z,1016.28
2018-08-09T04:34:49.447Z,1016.28
2018-08-09T04:35:49.194Z,1016.28
2018-08-09T04:36:48.935Z,1016.25
2018-08-09T04:37:50.835Z,1016.26
2018-08-09T04:38:48.756Z,1016.29
2018-08-09T04:39:49.535Z,1016.28
2018-08-09T04:40:49.177Z,1016.32
2018-08-09T04:41:49.895Z,1016.36
2018-08-09T04:42:48.734Z,1016.34
2018-08-09T04:43:49.653Z,1016.36
2018-08-09T04:44:49.552Z,1016.36
2018-08-09T04:45:48.995Z,1016.33
2018-08-09T04:46:48.667Z,1016.36
2018-08-09T04:47:49.624Z,1016.30
2018-08-09T04:48:49.190Z,1016.31
2018-08-09T04:49:49.191Z,1016.32
2018-08-09T04:50:49.114Z,1016.33
2018-08-09T04:51:48.987Z,1016.35
2018-08-09T04:52:48.859Z,1016.34
2018-08-09T04:53:48.841Z,1016.34
2018-08-09T04:54:48.622Z,1016.36
2018-08-09T04:55:49.422Z,1016.33
2018-08-09T04:56:49.083Z,1016.35
2018-08-09T04:58:32.593Z,1016.32
2018-08-09T04:59:56.756Z,1016.35
2018-08-09T05:00:56.726Z,1016.34
2018-08-09T05:01:57.353Z,1016.32
2018-08-09T05:03:18.779Z,1016.29
2018-08-09T05:04:19.390Z,1016.27
2018-08-09T05:05:19.493Z,1016.31
2018-08-09T05:06:19.219Z,1016.34
2018-08-09T05:07:19.984Z,1016.32
2018-08-09T05:08:41.697Z,1016.34
2018-08-09T05:09:42.908Z,1016.32
2018-08-09T05:10:42.205Z,1016.31
2018-08-09T05:11:42.413Z,1016.27
2018-08-09T05:13:06.318Z,1016.23
2018-08-09T05:14:07.187Z,1016.22
2018-08-09T05:15:05.984Z,1016.20
2018-08-09T05:16:28.446Z,1016.17
2018-08-09T05:17:29.314Z,1016.19
2018-08-09T05:19:12.771Z,1016.14
2018-08-09T05:20:12.841Z,1016.17
2018-08-09T05:21:12.731Z,1016.16
2018-08-09T05:22:34.095Z,1016.15
2018-08-09T05:23:35.314Z,1016.16
2018-08-09T05:24:58.386Z,1016.18
2018-08-09T05:26:19.964Z,1016.17
2018-08-09T05:27:20.019Z,1016.19
2018-08-09T05:29:30.248Z,1016.15
2018-08-09T05:30:29.952Z,1016.16
2018-08-09T05:31:30.662Z,1016.15
2018-08-09T05:32:30.426Z,1016.17
2018-08-09T05:33:30.437Z,1016.24
2018-08-09T05:34:30.677Z,1016.23
2018-08-09T05:35:30.275Z,1016.19
2018-08-09T05:36:30.047Z,1016.21
2018-08-09T05:37:29.991Z,1016.22
2018-08-09T05:38:30.699Z,1016.19
2018-08-09T05:39:30.905Z,1016.25
2018-08-09T05:40:30.793Z,1016.24
2018-08-09T05:41:30.541Z,1016.28
2018-08-09T05:42:30.491Z,1016.26
2018-08-09T05:43:30.383Z,1016.29
2018-08-09T05:44:30.416Z,1016.25
2018-08-09T05:45:34.765Z,1016.27
2018-08-09T05:46:41.499Z,1016.27
2018-08-09T05:47:30.713Z,1016.24
2018-08-09T05:48:30.588Z,1016.26
2018-08-09T05:49:30.522Z,1016.24
2018-08-09T05:50:30.596Z,1016.19
2018-08-09T05:51:30.453Z,1016.16
2018-08-09T05:52:53.980Z,1016.09
2018-08-09T05:54:18.743Z,1016.12
2018-08-09T05:55:20.131Z,1016.09
2018-08-09T05:56:19.417Z,1016.13
2018-08-09T05:57:19.225Z,1016.15
2018-08-09T05:58:19.178Z,1016.13
2018-08-09T05:59:19.258Z,1016.15
2018-08-09T06:00:40.663Z,1016.09
2018-08-09T06:01:41.481Z,1016.09
2018-08-09T06:02:41.635Z,1016.03
2018-08-09T06:03:40.652Z,1016.00
2018-08-09T06:04:41.285Z,1015.98
2018-08-09T06:05:41.447Z,1015.99
2018-08-09T06:06:41.385Z,1015.99
2018-08-09T06:07:41.236Z,1015.98
2018-08-09T06:08:41.135Z,1016.03
2018-08-09T06:09:41.407Z,1016.04
2018-08-09T06:10:41.353Z,1016.05
2018-08-09T06:11:41.210Z,1016.08
2018-08-09T06:13:25.745Z,1016.07
2018-08-09T06:14:25.654Z,1016.05
2018-08-09T06:15:47.728Z,1016.01
2018-08-09T06:16:47.662Z,1016.01
2018-08-09T06:17:48.555Z,1015.99
2018-08-09T06:18:47.615Z,1015.93
2018-08-09T06:19:48.445Z,1015.95
2018-08-09T06:20:48.401Z,1015.91
2018-08-09T06:21:48.261Z,1015.95
2018-08-09T06:22:48.188Z,1015.90
2018-08-09T06:23:48.733Z,1015.88
2018-08-09T06:24:47.543Z,1015.91
2018-08-09T06:25:48.698Z,1015.86
2018-08-09T06:26:48.210Z,1015.82
2018-08-09T06:27:48.297Z,1015.76
2018-08-09T06:28:48.336Z,1015.81
2018-08-09T06:29:48.471Z,1015.78
2018-08-09T06:31:10.904Z,1015.75
2018-08-09T06:32:11.964Z,1015.75
2018-08-09T06:33:11.167Z,1015.76
2018-08-09T06:34:11.540Z,1015.75
2018-08-09T06:35:11.682Z,1015.73
2018-08-09T06:36:34.016Z,1015.73
2018-08-09T06:37:34.151Z,1015.73
2018-08-09T06:38:56.584Z,1015.72
2018-08-09T06:39:56.602Z,1015.72
2018-08-09T06:42:01.745Z,1015.73
2018-08-09T06:43:01.646Z,1015.59
2018-08-09T06:44:02.027Z,1015.75
2018-08-09T06:45:02.055Z,1015.78
2018-08-09T06:46:02.099Z,1015.76
2018-08-09T06:47:02.516Z,1015.78
2018-08-09T06:48:23.992Z,1015.81
2018-08-09T06:49:24.018Z,1015.79
2018-08-09T06:50:24.429Z,1015.83
2018-08-09T06:51:24.663Z,1015.85
2018-08-09T06:52:24.411Z,1015.85
2018-08-09T06:53:24.495Z,1015.92
2018-08-09T06:54:24.237Z,1015.95
2018-08-09T06:55:24.195Z,1015.94
2018-08-09T06:56:24.540Z,1015.97
2018-08-09T06:57:23.612Z,1015.91
2018-08-09T06:58:47.855Z,1015.90
2018-08-09T06:59:48.932Z,1015.88
2018-08-09T07:00:48.601Z,1015.88
2018-08-09T07:01:48.821Z,1015.87
2018-08-09T07:02:48.221Z,1015.86
2018-08-09T07:03:50.666Z,1015.85
2018-08-09T07:04:48.513Z,1015.84
2018-08-09T07:05:48.389Z,1015.83
2018-08-09T07:06:48.226Z,1015.86
2018-08-09T07:08:12.454Z,1015.85
2018-08-09T07:09:12.219Z,1015.86
2018-08-09T07:10:34.111Z,1015.86
2018-08-09T07:11:35.353Z,1015.84
2018-08-09T07:12:34.535Z,1015.83
2018-08-09T07:13:34.800Z,1015.81
2018-08-09T07:14:34.929Z,1015.80
2018-08-09T07:15:58.556Z,1015.75
2018-08-09T07:16:59.520Z,1015.73
2018-08-09T07:17:58.638Z,1015.70
2018-08-09T07:18:58.870Z,1015.68
2018-08-09T07:19:59.043Z,1015.64
2018-08-09T07:20:59.313Z,1015.59
2018-08-09T07:21:59.141Z,1015.53
2018-08-09T07:22:59.222Z,1015.54
2018-08-09T07:23:59.430Z,1015.52
2018-08-09T07:24:58.552Z,1015.55
2018-08-09T07:25:59.519Z,1015.54
2018-08-09T07:26:58.795Z,1015.58
2018-08-09T07:28:20.448Z,1015.55
2018-08-09T07:29:21.405Z,1015.52
2018-08-09T07:30:21.493Z,1015.51
2018-08-09T07:31:46.147Z,1015.57
2018-08-09T07:32:49.318Z,1015.55
2018-08-09T07:33:45.367Z,1015.56
2018-08-09T07:34:46.155Z,1015.56
2018-08-09T07:35:46.123Z,1015.56
2018-08-09T07:36:46.320Z,1015.56
2018-08-09T07:38:08.014Z,1015.53
2018-08-09T07:39:09.803Z,1015.46
2018-08-09T07:40:09.116Z,1015.45
2018-08-09T07:41:11.404Z,1015.46
2018-08-09T07:42:31.341Z,1015.51
2018-08-09T07:43:53.772Z,1015.55
2018-08-09T07:45:17.914Z,1015.56
2018-08-09T07:46:18.328Z,1015.62
2018-08-09T07:47:18.664Z,1015.63
2018-08-09T07:48:17.793Z,1015.61
2018-08-09T07:49:17.698Z,1015.63
2018-08-09T07:50:17.996Z,1015.61
2018-08-09T07:51:17.927Z,1015.58
2018-08-09T07:52:17.724Z,1015.55
2018-08-09T07:53:17.967Z,1015.54
2018-08-09T07:54:18.042Z,1015.55
2018-08-09T07:55:18.058Z,1015.56
2018-08-09T07:56:18.165Z,1015.52
2018-08-09T07:57:18.246Z,1015.49
2018-08-09T07:58:18.260Z,1015.50
2018-08-09T08:00:05.801Z,1015.46
2018-08-09T08:01:07.040Z,1015.50
2018-08-09T08:02:06.740Z,1015.48
2018-08-09T08:03:06.072Z,1015.54
2018-08-09T08:04:06.408Z,1015.53
2018-08-09T08:05:06.297Z,1015.53
2018-08-09T08:06:06.622Z,1015.48
2018-08-09T08:07:06.401Z,1015.45
2018-08-09T08:08:06.173Z,1015.38
2018-08-09T08:09:06.033Z,1015.32
2018-08-09T08:10:06.086Z,1015.32
2018-08-09T08:11:06.187Z,1015.31
2018-08-09T08:12:30.110Z,1015.31
2018-08-09T08:13:31.078Z,1015.35
2018-08-09T08:14:55.366Z,1015.29
2018-08-09T08:15:55.540Z,1015.25
2018-08-09T08:16:55.608Z,1015.19
2018-08-09T08:17:55.644Z,1015.12
2018-08-09T08:18:55.542Z,1015.10
2018-08-09T08:19:55.824Z,1015.06
2018-08-09T08:20:55.844Z,1015.02
2018-08-09T08:21:55.736Z,1015.02
2018-08-09T08:23:18.031Z,1015.00
2018-08-09T08:24:18.105Z,1014.97
2018-08-09T08:25:40.981Z,1015.04
2018-08-09T08:26:41.460Z,1015.07
2018-08-09T08:27:41.751Z,1015.06
2018-08-09T08:29:03.834Z,1015.09
2018-08-09T08:30:04.765Z,1015.06
2018-08-09T08:31:04.582Z,1015.04
2018-08-09T08:32:04.561Z,1015.03
2018-08-09T08:33:28.294Z,1015.05
2018-08-09T08:34:51.334Z,1015.09
2018-08-09T08:36:16.342Z,1015.13
2018-08-09T08:37:15.892Z,1015.14
2018-08-09T08:38:17.714Z,1015.13
2018-08-09T08:39:16.840Z,1015.12
2018-08-09T08:40:16.890Z,1015.13
2018-08-09T08:41:16.979Z,1015.13
2018-08-09T08:42:40.959Z,1015.09
2018-08-09T08:43:41.704Z,1015.08
2018-08-09T08:44:41.744Z,1015.07
2018-08-09T08:45:41.614Z,1015.06
2018-08-09T08:46:42.972Z,1015.04
2018-08-09T08:47:42.368Z,1015.01
2018-08-09T08:48:41.745Z,1014.94
2018-08-09T08:49:41.643Z,1014.87
2018-08-09T08:50:41.518Z,1014.79
2018-08-09T08:52:04.009Z,1014.65
2018-08-09T08:53:04.440Z,1014.61
2018-08-09T08:54:05.217Z,1014.54
2018-08-09T08:55:04.188Z,1014.52
2018-08-09T08:56:04.573Z,1014.50
2018-08-09T08:57:26.557Z,1014.44
2018-08-09T08:59:12.398Z,1014.41
2018-08-09T09:00:13.295Z,1014.42
2018-08-09T09:01:13.040Z,1014.42
2018-08-09T09:02:15.851Z,1014.41
2018-08-09T09:03:12.852Z,1014.40
2018-08-09T09:04:36.460Z,1014.34
2018-08-09T09:05:36.794Z,1014.34
2018-08-09T09:06:37.478Z,1014.33
2018-08-09T09:07:36.409Z,1014.38
2018-08-09T09:08:37.669Z,1014.37
2018-08-09T09:09:37.045Z,1014.42
2018-08-09T09:11:01.318Z,1014.54
2018-08-09T09:12:23.604Z,1014.63
2018-08-09T09:13:23.823Z,1014.63
2018-08-09T09:14:23.696Z,1014.67
2018-08-09T09:15:23.665Z,1014.73
2018-08-09T09:16:23.694Z,1014.68
2018-08-09T09:17:24.796Z,1014.64
2018-08-09T09:18:23.955Z,1014.63
2018-08-09T09:19:24.094Z,1014.60
2018-08-09T09:20:24.254Z,1014.54
2018-08-09T09:21:24.044Z,1014.55
2018-08-09T09:22:24.326Z,1014.52
2018-08-09T09:23:24.148Z,1014.54
2018-08-09T09:24:45.928Z,1014.53
2018-08-09T09:25:46.809Z,1014.51
2018-08-09T09:27:10.587Z,1014.48
2018-08-09T09:28:10.862Z,1014.46
2018-08-09T09:29:10.840Z,1014.44
2018-08-09T09:30:10.931Z,1014.47
2018-08-09T09:31:10.854Z,1014.45
2018-08-09T09:32:34.875Z,1014.45
2018-08-09T09:33:35.991Z,1014.46
2018-08-09T09:35:21.320Z,1014.40
2018-08-09T09:36:21.504Z,1014.40
2018-08-09T09:38:07.073Z,1014.34
2018-08-09T09:39:06.844Z,1014.26
2018-08-09T09:40:07.735Z,1014.22
2018-08-09T09:41:06.632Z,1014.25
2018-08-09T09:42:07.468Z,1014.21
2018-08-09T09:43:07.219Z,1014.21
2018-08-09T09:44:06.980Z,1014.19
2018-08-09T09:45:06.960Z,1014.20
2018-08-09T09:46:06.952Z,1014.13
2018-08-09T09:47:08.453Z,1014.16
2018-08-09T09:48:31.348Z,1014.10
2018-08-09T09:49:31.716Z,1014.05
2018-08-09T09:50:33.064Z,1014.10
2018-08-09T09:51:32.165Z,1014.05
2018-08-09T09:52:31.419Z,1013.93
2018-08-09T09:53:31.418Z,1013.94
2018-08-09T09:54:31.256Z,1013.93
2018-08-09T09:55:54.921Z,1013.93
2018-08-09T09:56:54.886Z,1013.91
2018-08-09T09:57:54.839Z,1013.86
2018-08-09T09:58:54.892Z,1013.75
2018-08-09T09:59:54.981Z,1013.72
2018-08-09T10:00:55.344Z,1013.71
2018-08-09T10:01:55.733Z,1013.70
2018-08-09T10:02:55.908Z,1013.60
2018-08-09T10:03:55.013Z,1013.57
2018-08-09T10:05:20.614Z,1013.42
2018-08-09T10:06:26.110Z,1013.42
2018-08-09T10:07:19.231Z,1013.38
2018-08-09T10:08:19.429Z,1013.40
2018-08-09T10:09:43.239Z,1013.37
2018-08-09T10:10:43.207Z,1013.43
2018-08-09T10:11:43.476Z,1013.42
2018-08-09T10:12:43.675Z,1013.44
2018-08-09T10:13:43.712Z,1013.47
2018-08-09T10:15:30.177Z,1013.50
2018-08-09T10:16:30.277Z,1013.49
2018-08-09T10:17:30.082Z,1013.44
2018-08-09T10:18:29.949Z,1013.41
2018-08-09T10:19:29.857Z,1013.34
2018-08-09T10:20:53.743Z,1013.25
2018-08-09T10:21:53.936Z,1013.23
2018-08-09T10:22:54.145Z,1013.19
2018-08-09T10:23:55.300Z,1013.13
2018-08-09T10:24:54.433Z,1013.13
2018-08-09T10:25:54.756Z,1013.16
2018-08-09T10:26:54.189Z,1013.25
2018-08-09T10:27:54.299Z,1013.22
2018-08-09T10:28:54.943Z,1013.22
2018-08-09T10:29:54.141Z,1013.20
2018-08-09T10:30:54.249Z,1013.16
2018-08-09T10:31:54.285Z,1013.02
2018-08-09T10:32:54.510Z,1013.01
2018-08-09T10:33:55.672Z,1012.89
2018-08-09T10:34:53.487Z,1012.90
2018-08-09T10:36:17.035Z,1012.85
2018-08-09T10:37:17.115Z,1012.89
2018-08-09T10:38:17.359Z,1012.85
2018-08-09T10:39:17.342Z,1012.88
2018-08-09T10:40:17.956Z,1012.88
2018-08-09T10:41:16.884Z,1012.85
2018-08-09T10:42:17.205Z,1012.89
2018-08-09T10:43:42.036Z,1012.91
2018-08-09T10:45:30.016Z,1012.87
2018-08-09T10:46:30.949Z,1012.87
2018-08-09T10:47:30.742Z,1012.90
2018-08-09T10:48:33.159Z,1012.88
2018-08-09T10:49:44.655Z,1012.86
2018-08-09T10:50:55.919Z,1012.81
2018-08-09T10:51:56.764Z,1012.82
2018-08-09T10:52:56.043Z,1012.76
2018-08-09T10:53:56.440Z,1012.63
2018-08-09T10:54:55.535Z,1012.61
2018-08-09T10:56:03.721Z,1012.51
2018-08-09T10:56:55.908Z,1012.42
2018-08-09T10:57:56.053Z,1012.32
2018-08-09T10:58:57.816Z,1012.28
2018-08-09T10:59:55.712Z,1012.20
2018-08-09T11:00:56.087Z,1012.20
2018-08-09T11:01:56.372Z,1012.19
2018-08-09T11:03:19.375Z,1012.20
2018-08-09T11:04:44.381Z,1012.21
2018-08-09T11:05:44.618Z,1012.14
2018-08-09T11:06:43.697Z,1012.15
2018-08-09T11:08:07.574Z,1012.11
2018-08-09T11:09:07.517Z,1012.12
2018-08-09T11:10:08.010Z,1012.06
2018-08-09T11:11:32.620Z,1012.07
2018-08-09T11:12:33.318Z,1011.97
2018-08-09T11:13:37.316Z,1012.00
2018-08-09T11:14:57.463Z,1011.88
2018-08-09T11:15:57.676Z,1011.93
2018-08-09T11:16:57.791Z,1011.89
2018-08-09T11:17:57.972Z,1011.83
2018-08-09T11:18:58.030Z,1011.84
2018-08-09T11:19:58.286Z,1011.81
2018-08-09T11:20:57.411Z,1011.80
2018-08-09T11:21:57.689Z,1011.77
2018-08-09T11:22:58.574Z,1011.78
2018-08-09T11:23:58.334Z,1011.71
2018-08-09T11:25:02.144Z,1011.74
2018-08-09T11:26:02.666Z,1011.74
2018-08-09T11:27:01.684Z,1011.75
2018-08-09T11:27:59.086Z,1011.79
2018-08-09T11:28:57.927Z,1011.74
2018-08-09T11:30:02.578Z,1011.72
2018-08-09T11:30:57.716Z,1011.77
2018-08-09T11:31:58.113Z,1011.76
2018-08-09T11:32:58.060Z,1011.81
2018-08-09T11:33:58.755Z,1011.73
2018-08-09T11:34:57.840Z,1011.70
2018-08-09T11:35:58.173Z,1011.59
2018-08-09T11:36:58.190Z,1011.64
2018-08-09T11:37:57.516Z,1011.63
2018-08-09T11:38:57.789Z,1011.62
2018-08-09T11:39:57.947Z,1011.56
2018-08-09T11:40:59.582Z,1011.55
2018-08-09T11:41:57.653Z,1011.53
2018-08-09T11:42:58.307Z,1011.56
2018-08-09T11:43:58.458Z,1011.59
2018-08-09T11:44:58.487Z,1011.61
2018-08-09T11:45:58.892Z,1011.47
2018-08-09T11:46:58.940Z,1011.51
2018-08-09T11:47:58.669Z,1011.48
2018-08-09T11:48:57.943Z,1011.44
2018-08-09T11:49:59.834Z,1011.50
2018-08-09T11:51:00.293Z,1011.47
2018-08-09T11:52:00.653Z,1011.46
2018-08-09T11:52:59.930Z,1011.50
2018-08-09T11:53:58.638Z,1011.43
2018-08-09T11:54:58.303Z,1011.45
2018-08-09T11:55:58.153Z,1011.39
2018-08-09T11:56:58.151Z,1011.44
2018-08-09T11:58:22.123Z,1011.33
2018-08-09T11:59:22.886Z,1011.26
2018-08-09T12:00:22.979Z,1011.30
2018-08-09T12:01:44.880Z,1011.21
2018-08-09T12:02:53.969Z,1011.22
2018-08-09T12:03:46.640Z,1011.23
2018-08-09T12:05:12.365Z,1011.19
2018-08-09T12:06:44.988Z,1011.15
2018-08-09T12:07:44.972Z,1011.05
2018-08-09T12:08:45.018Z,1011.09
2018-08-09T12:10:09.460Z,1011.03
2018-08-09T12:11:33.324Z,1010.95
2018-08-09T12:13:00.019Z,1011.01
2018-08-09T12:14:23.031Z,1010.97
2018-08-09T12:15:23.289Z,1010.98
2018-08-09T12:16:24.128Z,1010.97
2018-08-09T12:17:23.359Z,1010.95
2018-08-09T12:18:24.781Z,1010.92
2018-08-09T12:19:49.041Z,1010.88
2018-08-09T12:21:36.096Z,1010.88
2018-08-09T12:23:00.292Z,1010.78
2018-08-09T12:24:00.846Z,1010.72
2018-08-09T12:25:05.082Z,1010.75
2018-08-09T12:26:28.170Z,1010.76
2018-08-09T12:27:25.972Z,1010.65
2018-08-09T12:28:25.006Z,1010.64
2018-08-09T12:29:25.698Z,1010.61
2018-08-09T12:30:25.088Z,1010.59
2018-08-09T12:31:31.012Z,1010.54
2018-08-09T12:32:57.963Z,1010.53
2018-08-09T12:33:59.976Z,1010.55
2018-08-09T12:34:58.057Z,1010.55
2018-08-09T12:35:57.972Z,1010.41
2018-08-09T12:36:58.047Z,1010.52
2018-08-09T12:37:58.188Z,1010.44
2018-08-09T12:38:58.332Z,1010.36
2018-08-09T12:39:58.570Z,1010.31
2018-08-09T12:40:58.731Z,1010.26
2018-08-09T12:42:21.964Z,1010.21
2018-08-09T12:43:23.033Z,1010.19
2018-08-09T12:44:22.739Z,1010.15
2018-08-09T12:45:24.527Z,1010.11
2018-08-09T12:46:23.042Z,1010.06
2018-08-09T12:47:23.989Z,1010.03
2018-08-09T12:48:23.156Z,1009.99
2018-08-09T12:49:22.105Z,1009.97
2018-08-09T12:50:22.917Z,1009.94
2018-08-09T12:51:23.378Z,1009.90
2018-08-09T12:52:31.564Z,1009.84
2018-08-09T12:53:29.348Z,1009.85
2018-08-09T12:54:23.393Z,1009.85
2018-08-09T12:55:22.334Z,1009.78
2018-08-09T12:56:43.980Z,1009.69
2018-08-09T12:57:45.009Z,1009.64
2018-08-09T12:58:44.021Z,1009.65
2018-08-09T12:59:45.164Z,1009.61
2018-08-09T13:00:44.465Z,1009.67
2018-08-09T13:02:06.338Z,1009.58
2018-08-09T13:03:07.189Z,1009.61